Ostby, North Dakota
Current Conditions -  °F | °C
As of 3:15 AM on Friday 19 Dec 2014 (Local Time) from KRUG Reporting Station
Haze Haze  
Wind Chill: 18°   Ceiling: 300
Heat Index: 25°   Visibility: 3mi
Dew Point: 25°   Wind: 6mph
Humidity: 100%   Direction: 140°SE
Pressure: 29.98"   Gusts: NA
Location:  48.5496°N, 100.255°W
Report Text: KRUG 190915Z AUTO 14005KT 3SM BR BKN003 OVC008 M04/M04 A2998 RMK AO2
Loading
Personal Weather Stations






























Interactive Weather Map New forecast layout! Learn more

10-Day Weather Forecast

Advertisements
Track Severe Weather on mobile